All City Stadium (Denver), Colorado
Current Conditions -  °F | °C
As of 11:53 PM on Friday 31 Oct 2014 (Local Time) from KAPA Reporting Station
Scattered Clouds Scattered Clouds  
Wind Chill: 36°   Ceiling: Unl
Heat Index: 41°   Visibility: 10mi
Dew Point: 29°   Wind: 7mph
Humidity: 62%   Direction: 180°S
Pressure: 30.06"   Gusts: NA
Location:  39.69109°N, 104.9663°W
Report Text: KAPA 010553Z 18006KT 10SM FEW140 SCT220 05/M02 A3006 RMK AO2 SLP165 T00501017 10094 20022 58016
Loading
Personal Weather Stations






























Interactive Weather Map
Tropical Storm Tracking
New forecast layout! Learn more

10-Day Weather Forecast

Advertisements
Track Severe Weather on mobile